sensor_id;sensor_type;location;lat;lon;timestamp;P1;durP1;ratioP1;P2;durP2;ratioP2
45940;SDS011;31858;46.008;8.978;2022-09-09T00:07:43;4.00;;;2.53;;
45940;SDS011;31858;46.008;8.978;2022-09-09T00:17:51;8.38;;;3.20;;
45940;SDS011;31858;46.008;8.978;2022-09-09T00:27:56;9.20;;;2.75;;
45940;SDS011;31858;46.008;8.978;2022-09-09T00:38:00;7.82;;;3.90;;
45940;SDS011;31858;46.008;8.978;2022-09-09T00:48:08;5.18;;;3.10;;
45940;SDS011;31858;46.008;8.978;2022-09-09T00:58:12;13.77;;;3.55;;
45940;SDS011;31858;46.008;8.978;2022-09-09T01:08:18;5.75;;;2.95;;
45940;SDS011;31858;46.008;8.978;2022-09-09T01:18:35;5.45;;;2.88;;
45940;SDS011;31858;46.008;8.978;2022-09-09T01:28:43;4.28;;;2.90;;
45940;SDS011;31858;46.008;8.978;2022-09-09T01:38:47;5.47;;;3.28;;
45940;SDS011;31858;46.008;8.978;2022-09-09T01:48:51;4.65;;;3.45;;
45940;SDS011;31858;46.008;8.978;2022-09-09T01:58:59;4.95;;;3.75;;
45940;SDS011;31858;46.008;8.978;2022-09-09T02:09:20;7.10;;;2.78;;
45940;SDS011;31858;46.008;8.978;2022-09-09T02:19:25;10.73;;;4.00;;
45940;SDS011;31858;46.008;8.978;2022-09-09T02:29:33;8.48;;;3.97;;
45940;SDS011;31858;46.008;8.978;2022-09-09T02:39:37;3.47;;;2.55;;
45940;SDS011;31858;46.008;8.978;2022-09-09T02:49:43;8.27;;;4.43;;
45940;SDS011;31858;46.008;8.978;2022-09-09T02:59:58;4.83;;;4.27;;
45940;SDS011;31858;46.008;8.978;2022-09-09T03:10:02;11.23;;;3.47;;
45940;SDS011;31858;46.008;8.978;2022-09-09T03:20:04;2.20;;;1.30;;
45940;SDS011;31858;46.008;8.978;2022-09-09T03:30:09;1.30;;;1.20;;
45940;SDS011;31858;46.008;8.978;2022-09-09T03:40:11;1.95;;;1.40;;
45940;SDS011;31858;46.008;8.978;2022-09-09T03:50:15;2.75;;;1.73;;
45940;SDS011;31858;46.008;8.978;2022-09-09T04:00:18;4.63;;;1.90;;
45940;SDS011;31858;46.008;8.978;2022-09-09T04:10:21;6.93;;;1.98;;
45940;SDS011;31858;46.008;8.978;2022-09-09T04:20:23;5.20;;;2.00;;
45940;SDS011;31858;46.008;8.978;2022-09-09T04:30:26;2.00;;;1.65;;
45940;SDS011;31858;46.008;8.978;2022-09-09T04:40:28;2.60;;;1.60;;
45940;SDS011;31858;46.008;8.978;2022-09-09T04:50:31;4.07;;;1.85;;
45940;SDS011;31858;46.008;8.978;2022-09-09T05:00:33;4.68;;;1.92;;
45940;SDS011;31858;46.008;8.978;2022-09-09T05:10:38;2.55;;;1.85;;
45940;SDS011;31858;46.008;8.978;2022-09-09T05:20:41;6.53;;;2.15;;
45940;SDS011;31858;46.008;8.978;2022-09-09T05:30:44;3.97;;;1.98;;
45940;SDS011;31858;46.008;8.978;2022-09-09T05:40:47;3.88;;;1.75;;
45940;SDS011;31858;46.008;8.978;2022-09-09T05:50:53;3.63;;;1.58;;
45940;SDS011;31858;46.008;8.978;2022-09-09T06:01:00;1.45;;;1.25;;
45940;SDS011;31858;46.008;8.978;2022-09-09T06:11:04;4.32;;;1.60;;
45940;SDS011;31858;46.008;8.978;2022-09-09T06:21:09;4.47;;;2.05;;
45940;SDS011;31858;46.008;8.978;2022-09-09T06:31:17;1.60;;;1.50;;
45940;SDS011;31858;46.008;8.978;2022-09-09T06:41:22;1.55;;;1.45;;
45940;SDS011;31858;46.008;8.978;2022-09-09T06:51:28;5.22;;;1.73;;
45940;SDS011;31858;46.008;8.978;2022-09-09T07:01:31;2.63;;;1.40;;
45940;SDS011;31858;46.008;8.978;2022-09-09T07:11:37;2.05;;;1.25;;
45940;SDS011;31858;46.008;8.978;2022-09-09T07:21:39;1.25;;;1.15;;
45940;SDS011;31858;46.008;8.978;2022-09-09T07:31:43;2.03;;;1.40;;
45940;SDS011;31858;46.008;8.978;2022-09-09T07:41:45;1.65;;;1.20;;
45940;SDS011;31858;46.008;8.978;2022-09-09T07:51:49;2.13;;;1.20;;
45940;SDS011;31858;46.008;8.978;2022-09-09T08:01:51;1.13;;;1.00;;
45940;SDS011;31858;46.008;8.978;2022-09-09T08:11:55;1.27;;;1.10;;
45940;SDS011;31858;46.008;8.978;2022-09-09T08:21:58;1.65;;;1.55;;
45940;SDS011;31858;46.008;8.978;2022-09-09T08:32:03;1.52;;;1.42;;
45940;SDS011;31858;46.008;8.978;2022-09-09T08:42:09;4.40;;;1.63;;
45940;SDS011;31858;46.008;8.978;2022-09-09T08:52:21;1.92;;;1.30;;
45940;SDS011;31858;46.008;8.978;2022-09-09T09:02:28;2.72;;;1.88;;
45940;SDS011;31858;46.008;8.978;2022-09-09T09:12:40;1.77;;;1.58;;
45940;SDS011;31858;46.008;8.978;2022-09-09T09:22:46;2.25;;;1.67;;
45940;SDS011;31858;46.008;8.978;2022-09-09T09:32:53;2.38;;;1.50;;
45940;SDS011;31858;46.008;8.978;2022-09-09T09:42:57;3.13;;;1.38;;
45940;SDS011;31858;46.008;8.978;2022-09-09T09:53:02;1.90;;;1.30;;
45940;SDS011;31858;46.008;8.978;2022-09-09T10:03:12;1.33;;;1.25;;
45940;SDS011;31858;46.008;8.978;2022-09-09T10:13:31;0.98;;;0.93;;
45940;SDS011;31858;46.008;8.978;2022-09-09T10:23:45;1.45;;;1.10;;
45940;SDS011;31858;46.008;8.978;2022-09-09T10:34:02;1.00;;;0.90;;
45940;SDS011;31858;46.008;8.978;2022-09-09T10:44:33;1.23;;;0.90;;
45940;SDS011;31858;46.008;8.978;2022-09-09T10:54:51;1.23;;;0.80;;
45940;SDS011;31858;46.008;8.978;2022-09-09T11:04:59;3.08;;;1.00;;
45940;SDS011;31858;46.008;8.978;2022-09-09T11:15:08;1.42;;;0.90;;
45940;SDS011;31858;46.008;8.978;2022-09-09T11:25:18;2.72;;;1.20;;
45940;SDS011;31858;46.008;8.978;2022-09-09T11:35:29;1.73;;;0.98;;
45940;SDS011;31858;46.008;8.978;2022-09-09T11:45:36;0.98;;;0.90;;
45940;SDS011;31858;46.008;8.978;2022-09-09T11:55:40;15.27;;;1.33;;
45940;SDS011;31858;46.008;8.978;2022-09-09T12:05:42;2.33;;;1.40;;
45940;SDS011;31858;46.008;8.978;2022-09-09T12:15:48;3.10;;;1.45;;
45940;SDS011;31858;46.008;8.978;2022-09-09T12:25:59;1.95;;;1.20;;
45940;SDS011;31858;46.008;8.978;2022-09-09T12:36:11;1.77;;;1.45;;
45940;SDS011;31858;46.008;8.978;2022-09-09T12:46:20;2.88;;;1.90;;
45940;SDS011;31858;46.008;8.978;2022-09-09T12:56:33;3.40;;;1.80;;
45940;SDS011;31858;46.008;8.978;2022-09-09T13:06:36;3.15;;;1.83;;
45940;SDS011;31858;46.008;8.978;2022-09-09T13:16:39;3.65;;;1.80;;
45940;SDS011;31858;46.008;8.978;2022-09-09T13:26:41;2.35;;;1.75;;
45940;SDS011;31858;46.008;8.978;2022-09-09T13:36:46;1.88;;;1.50;;
45940;SDS011;31858;46.008;8.978;2022-09-09T13:46:59;4.38;;;1.50;;
45940;SDS011;31858;46.008;8.978;2022-09-09T13:57:03;3.20;;;1.90;;
45940;SDS011;31858;46.008;8.978;2022-09-09T14:07:05;3.15;;;1.40;;
45940;SDS011;31858;46.008;8.978;2022-09-09T14:17:08;1.42;;;1.33;;
45940;SDS011;31858;46.008;8.978;2022-09-09T14:27:10;2.45;;;1.85;;
45940;SDS011;31858;46.008;8.978;2022-09-09T14:37:13;4.20;;;2.08;;
45940;SDS011;31858;46.008;8.978;2022-09-09T14:47:14;6.47;;;2.15;;
45940;SDS011;31858;46.008;8.978;2022-09-09T14:57:17;4.18;;;2.17;;
45940;SDS011;31858;46.008;8.978;2022-09-09T15:07:19;2.65;;;2.25;;
45940;SDS011;31858;46.008;8.978;2022-09-09T15:17:23;5.10;;;2.25;;
45940;SDS011;31858;46.008;8.978;2022-09-09T15:27:27;5.60;;;2.30;;
45940;SDS011;31858;46.008;8.978;2022-09-09T15:37:30;4.05;;;2.10;;
45940;SDS011;31858;46.008;8.978;2022-09-09T15:47:31;3.72;;;2.45;;
45940;SDS011;31858;46.008;8.978;2022-09-09T15:57:35;3.47;;;2.25;;
45940;SDS011;31858;46.008;8.978;2022-09-09T16:07:37;6.93;;;2.40;;
45940;SDS011;31858;46.008;8.978;2022-09-09T16:17:40;2.45;;;2.10;;
45940;SDS011;31858;46.008;8.978;2022-09-09T16:27:42;10.45;;;2.80;;
45940;SDS011;31858;46.008;8.978;2022-09-09T16:37:45;5.00;;;2.90;;
45940;SDS011;31858;46.008;8.978;2022-09-09T16:47:46;3.85;;;2.35;;
45940;SDS011;31858;46.008;8.978;2022-09-09T16:57:50;5.43;;;3.05;;
45940;SDS011;31858;46.008;8.978;2022-09-09T17:07:51;6.10;;;2.95;;
45940;SDS011;31858;46.008;8.978;2022-09-09T17:17:56;2.83;;;2.33;;
45940;SDS011;31858;46.008;8.978;2022-09-09T17:27:58;4.85;;;2.35;;
45940;SDS011;31858;46.008;8.978;2022-09-09T17:38:03;6.35;;;2.80;;
45940;SDS011;31858;46.008;8.978;2022-09-09T17:48:05;4.22;;;2.60;;
45940;SDS011;31858;46.008;8.978;2022-09-09T17:58:08;4.70;;;2.85;;
45940;SDS011;31858;46.008;8.978;2022-09-09T18:08:10;7.07;;;3.17;;
45940;SDS011;31858;46.008;8.978;2022-09-09T18:18:13;3.65;;;2.78;;
45940;SDS011;31858;46.008;8.978;2022-09-09T18:28:16;6.00;;;2.80;;
45940;SDS011;31858;46.008;8.978;2022-09-09T18:38:21;9.00;;;3.08;;
45940;SDS011;31858;46.008;8.978;2022-09-09T18:48:24;6.70;;;3.13;;
45940;SDS011;31858;46.008;8.978;2022-09-09T18:58:27;12.85;;;3.42;;
45940;SDS011;31858;46.008;8.978;2022-09-09T19:08:29;6.10;;;3.17;;
45940;SDS011;31858;46.008;8.978;2022-09-09T19:18:33;6.45;;;3.22;;
45940;SDS011;31858;46.008;8.978;2022-09-09T19:28:36;4.00;;;2.92;;
45940;SDS011;31858;46.008;8.978;2022-09-09T19:38:40;8.20;;;3.40;;
45940;SDS011;31858;46.008;8.978;2022-09-09T19:48:42;5.00;;;3.28;;
45940;SDS011;31858;46.008;8.978;2022-09-09T19:58:46;7.55;;;3.45;;
45940;SDS011;31858;46.008;8.978;2022-09-09T20:08:47;6.47;;;3.65;;
45940;SDS011;31858;46.008;8.978;2022-09-09T20:18:52;9.60;;;3.25;;
45940;SDS011;31858;46.008;8.978;2022-09-09T20:28:55;5.93;;;3.63;;
45940;SDS011;31858;46.008;8.978;2022-09-09T20:39:00;11.65;;;4.80;;
45940;SDS011;31858;46.008;8.978;2022-09-09T20:49:03;4.45;;;3.42;;
45940;SDS011;31858;46.008;8.978;2022-09-09T20:59:09;4.75;;;2.97;;
45940;SDS011;31858;46.008;8.978;2022-09-09T21:09:12;5.03;;;3.20;;
45940;SDS011;31858;46.008;8.978;2022-09-09T21:19:15;9.52;;;3.47;;
45940;SDS011;31858;46.008;8.978;2022-09-09T21:29:17;7.45;;;2.92;;
45940;SDS011;31858;46.008;8.978;2022-09-09T21:39:20;6.13;;;2.60;;
45940;SDS011;31858;46.008;8.978;2022-09-09T21:49:22;3.80;;;2.47;;
45940;SDS011;31858;46.008;8.978;2022-09-09T21:59:26;3.13;;;1.90;;
45940;SDS011;31858;46.008;8.978;2022-09-09T22:09:27;2.33;;;1.63;;
45940;SDS011;31858;46.008;8.978;2022-09-09T22:29:34;2.63;;;1.42;;
45940;SDS011;31858;46.008;8.978;2022-09-09T22:39:37;6.50;;;1.75;;
45940;SDS011;31858;46.008;8.978;2022-09-09T22:49:38;2.58;;;1.52;;
45940;SDS011;31858;46.008;8.978;2022-09-09T22:59:42;2.47;;;1.10;;
45940;SDS011;31858;46.008;8.978;2022-09-09T23:09:44;3.20;;;1.52;;
45940;SDS011;31858;46.008;8.978;2022-09-09T23:19:48;10.23;;;2.15;;
45940;SDS011;31858;46.008;8.978;2022-09-09T23:29:52;3.38;;;1.70;;
45940;SDS011;31858;46.008;8.978;2022-09-09T23:39:56;7.20;;;1.15;;
45940;SDS011;31858;46.008;8.978;2022-09-09T23:49:57;3.63;;;1.10;;
